createdAt,value
2018-11-07T00:00:55.489Z,999.35
2018-11-07T00:01:55.518Z,999.33
2018-11-07T00:02:55.574Z,999.34
2018-11-07T00:03:55.538Z,999.36
2018-11-07T00:04:55.561Z,999.35
2018-11-07T00:05:55.585Z,999.35
2018-11-07T00:06:55.621Z,999.33
2018-11-07T00:07:55.706Z,999.29
2018-11-07T00:08:55.621Z,999.32
2018-11-07T00:09:55.676Z,999.29
2018-11-07T00:10:55.668Z,999.32
2018-11-07T00:11:55.673Z,999.32
2018-11-07T00:12:55.678Z,999.29
2018-11-07T00:13:55.739Z,999.31
2018-11-07T00:14:55.721Z,999.31
2018-11-07T00:15:55.738Z,999.32
2018-11-07T00:16:55.756Z,999.28
2018-11-07T00:17:55.775Z,999.26
2018-11-07T00:18:55.781Z,999.22
2018-11-07T00:19:55.817Z,999.26
2018-11-07T00:20:55.847Z,999.27
2018-11-07T00:21:55.856Z,999.25
2018-11-07T00:22:55.854Z,999.23
2018-11-07T00:23:55.870Z,999.22
2018-11-07T00:24:55.897Z,999.25
2018-11-07T00:25:55.923Z,999.30
2018-11-07T00:26:55.940Z,999.28
2018-11-07T00:27:55.940Z,999.29
2018-11-07T00:28:55.986Z,999.33
2018-11-07T00:30:17.084Z,999.32
2018-11-07T00:30:56.007Z,999.32
2018-11-07T00:31:56.012Z,999.35
2018-11-07T00:32:56.022Z,999.31
2018-11-07T00:33:56.119Z,999.32
2018-11-07T00:34:56.059Z,999.32
2018-11-07T00:35:56.104Z,999.32
2018-11-07T00:36:56.100Z,999.34
2018-11-07T00:37:56.165Z,999.30
2018-11-07T00:38:56.125Z,999.33
2018-11-07T00:39:56.189Z,999.36
2018-11-07T00:40:56.160Z,999.38
2018-11-07T00:41:56.185Z,999.40
2018-11-07T00:42:56.195Z,999.42
2018-11-07T00:43:56.214Z,999.42
2018-11-07T00:44:56.224Z,999.44
2018-11-07T00:45:56.251Z,999.44
2018-11-07T00:46:56.272Z,999.43
2018-11-07T00:47:56.283Z,999.43
2018-11-07T00:48:56.308Z,999.48
2018-11-07T00:49:56.312Z,999.50
2018-11-07T00:50:56.419Z,999.50
2018-11-07T00:51:56.357Z,999.47
2018-11-07T00:52:56.355Z,999.48
2018-11-07T00:53:56.388Z,999.46
2018-11-07T00:54:56.403Z,999.49
2018-11-07T00:55:56.417Z,999.45
2018-11-07T00:56:56.428Z,999.45
2018-11-07T00:57:56.459Z,999.42
2018-11-07T00:58:56.480Z,999.45
2018-11-07T00:59:56.490Z,999.49
2018-11-07T01:00:56.523Z,999.43
2018-11-07T01:01:56.592Z,999.46
2018-11-07T01:02:56.527Z,999.41
2018-11-07T01:03:56.597Z,999.49
2018-11-07T01:04:56.562Z,999.49
2018-11-07T01:05:56.587Z,999.52
2018-11-07T01:06:56.611Z,999.53
2018-11-07T01:07:56.675Z,999.54
2018-11-07T01:08:56.649Z,999.55
2018-11-07T01:09:56.653Z,999.56
2018-11-07T01:10:56.670Z,999.56
2018-11-07T01:11:56.684Z,999.55
2018-11-07T01:12:56.703Z,999.59
2018-11-07T01:13:56.715Z,999.55
2018-11-07T01:14:56.794Z,999.55
2018-11-07T01:15:56.780Z,999.58
2018-11-07T01:16:56.793Z,999.57
2018-11-07T01:17:56.787Z,999.56
2018-11-07T01:18:56.892Z,999.55
2018-11-07T01:19:56.828Z,999.56
2018-11-07T01:20:56.835Z,999.56
2018-11-07T01:21:56.875Z,999.57
2018-11-07T01:22:56.891Z,999.54
2018-11-07T01:23:56.884Z,999.53
2018-11-07T01:24:56.902Z,999.50
2018-11-07T01:25:56.919Z,999.51
2018-11-07T01:26:56.936Z,999.51
2018-11-07T01:27:56.951Z,999.50
2018-11-07T01:28:56.982Z,999.41
2018-11-07T01:29:57.001Z,999.46
2018-11-07T01:30:57.034Z,999.40
2018-11-07T01:31:57.033Z,999.36
2018-11-07T01:32:57.079Z,999.36
2018-11-07T01:33:57.083Z,999.39
2018-11-07T01:34:57.090Z,999.41
2018-11-07T01:35:57.079Z,999.40
2018-11-07T01:36:57.137Z,999.43
2018-11-07T01:37:57.120Z,999.41
2018-11-07T01:38:57.145Z,999.45
2018-11-07T01:39:57.153Z,999.43
2018-11-07T01:40:57.167Z,999.43
2018-11-07T01:41:57.205Z,999.44
2018-11-07T01:42:57.234Z,999.44
2018-11-07T01:43:57.234Z,999.43
2018-11-07T01:44:57.237Z,999.43
2018-11-07T01:45:57.295Z,999.41
2018-11-07T01:46:57.294Z,999.39
2018-11-07T01:47:57.282Z,999.40
2018-11-07T01:48:57.296Z,999.38
2018-11-07T01:49:57.322Z,999.36
2018-11-07T01:50:57.406Z,999.36
2018-11-07T01:51:57.359Z,999.36
2018-11-07T01:52:57.368Z,999.38
2018-11-07T01:53:57.403Z,999.38
2018-11-07T01:54:57.406Z,999.36
2018-11-07T01:55:57.420Z,999.36
2018-11-07T01:57:57.496Z,999.36
2018-11-07T01:58:57.472Z,999.37
2018-11-07T01:59:57.491Z,999.34
2018-11-07T02:00:57.506Z,999.32
2018-11-07T02:01:57.532Z,999.29
2018-11-07T02:02:57.567Z,999.31
2018-11-07T02:03:57.555Z,999.29
2018-11-07T02:04:57.577Z,999.28
2018-11-07T02:05:57.590Z,999.29
2018-11-07T02:06:57.600Z,999.30
2018-11-07T02:07:57.622Z,999.25
2018-11-07T02:08:57.652Z,999.29
2018-11-07T02:09:57.657Z,999.28
2018-11-07T02:10:57.672Z,999.22
2018-11-07T02:11:57.728Z,999.22
2018-11-07T02:12:57.707Z,999.14
2018-11-07T02:13:57.721Z,999.06
2018-11-07T02:14:57.808Z,999.09
2018-11-07T02:15:57.759Z,999.09
2018-11-07T02:16:57.776Z,999.14
2018-11-07T02:17:57.789Z,999.16
2018-11-07T02:18:57.834Z,999.18
2018-11-07T02:19:57.818Z,999.16
2018-11-07T02:20:57.839Z,999.17
2018-11-07T02:21:57.866Z,999.21
2018-11-07T02:22:57.879Z,999.19
2018-11-07T02:23:57.916Z,999.13
2018-11-07T02:24:57.912Z,999.10
2018-11-07T02:25:57.921Z,999.17
2018-11-07T02:26:57.939Z,999.21
2018-11-07T02:27:58.014Z,999.20
2018-11-07T02:28:57.968Z,999.21
2018-11-07T02:29:57.993Z,999.25
2018-11-07T02:30:58.008Z,999.28
2018-11-07T02:31:58.021Z,999.30
2018-11-07T02:32:58.037Z,999.33
2018-11-07T02:33:58.079Z,999.33
2018-11-07T02:34:58.092Z,999.36
2018-11-07T02:35:58.092Z,999.36
2018-11-07T02:36:58.206Z,999.38
2018-11-07T02:37:58.146Z,999.39
2018-11-07T02:38:58.155Z,999.37
2018-11-07T02:39:58.178Z,999.36
2018-11-07T02:40:58.258Z,999.37
2018-11-07T02:41:58.372Z,999.31
2018-11-07T02:42:58.266Z,999.28
2018-11-07T02:43:58.265Z,999.25
2018-11-07T02:44:58.335Z,999.22
2018-11-07T02:45:58.250Z,999.17
2018-11-07T02:46:58.280Z,999.21
2018-11-07T02:47:58.357Z,999.24
2018-11-07T02:48:58.325Z,999.29
2018-11-07T02:49:58.337Z,999.28
2018-11-07T02:50:58.358Z,999.27
2018-11-07T02:51:58.371Z,999.30
2018-11-07T02:52:58.526Z,999.27
2018-11-07T02:53:58.419Z,999.24
2018-11-07T02:54:58.441Z,999.23
2018-11-07T02:55:58.532Z,999.29
2018-11-07T02:56:58.501Z,999.22
2018-11-07T02:57:58.488Z,999.16
2018-11-07T02:58:58.525Z,999.24
2018-11-07T02:59:58.501Z,999.23
2018-11-07T03:00:58.586Z,999.18
2018-11-07T03:01:58.590Z,999.15
2018-11-07T03:02:58.614Z,999.21
2018-11-07T03:03:58.656Z,999.18
2018-11-07T03:04:58.570Z,999.15
2018-11-07T03:05:58.601Z,999.18
2018-11-07T03:06:58.634Z,999.19
2018-11-07T03:07:58.630Z,999.24
2018-11-07T03:08:58.635Z,999.27
2018-11-07T03:09:58.722Z,999.31
2018-11-07T03:10:58.667Z,999.33
2018-11-07T03:11:58.719Z,999.32
2018-11-07T03:12:58.703Z,999.30
2018-11-07T03:13:58.771Z,999.31
2018-11-07T03:14:58.733Z,999.33
2018-11-07T03:15:58.792Z,999.36
2018-11-07T03:16:58.774Z,999.40
2018-11-07T03:17:58.793Z,999.35
2018-11-07T03:18:58.848Z,999.34
2018-11-07T03:19:58.830Z,999.39
2018-11-07T03:20:58.857Z,999.36
2018-11-07T03:21:58.885Z,999.33
2018-11-07T03:22:58.871Z,999.29
2018-11-07T03:23:58.941Z,999.31
2018-11-07T03:24:58.903Z,999.32
2018-11-07T03:25:58.923Z,999.25
2018-11-07T03:26:58.938Z,999.22
2018-11-07T03:27:58.954Z,999.27
2018-11-07T03:28:59.030Z,999.30
2018-11-07T03:29:58.994Z,999.26
2018-11-07T03:30:59.023Z,999.25
2018-11-07T03:31:59.017Z,999.27
2018-11-07T03:32:59.036Z,999.28
2018-11-07T03:33:59.058Z,999.28
2018-11-07T03:34:59.173Z,999.23
2018-11-07T03:35:59.077Z,999.18
2018-11-07T03:36:59.099Z,999.26
2018-11-07T03:37:59.132Z,999.23
2018-11-07T03:38:59.175Z,999.25
2018-11-07T03:39:59.160Z,999.13
2018-11-07T03:40:59.209Z,999.14
2018-11-07T03:41:59.215Z,999.16
2018-11-07T03:42:59.215Z,999.13
2018-11-07T03:43:59.218Z,999.17
2018-11-07T03:44:59.243Z,999.16
2018-11-07T03:45:59.256Z,999.17
2018-11-07T03:46:59.276Z,999.14
2018-11-07T03:47:59.281Z,999.14
2018-11-07T03:48:59.298Z,999.12
2018-11-07T03:49:59.319Z,999.11
2018-11-07T03:50:59.345Z,999.13
2018-11-07T03:51:59.358Z,999.14
2018-11-07T03:52:59.423Z,999.12
2018-11-07T03:53:59.377Z,999.13
2018-11-07T03:54:59.461Z,999.11
2018-11-07T03:55:59.414Z,999.12
2018-11-07T03:56:59.455Z,999.12
2018-11-07T03:57:59.480Z,999.18
2018-11-07T03:58:59.458Z,999.18
2018-11-07T03:59:59.476Z,999.20
2018-11-07T04:00:59.523Z,999.23
2018-11-07T04:01:59.508Z,999.24
2018-11-07T04:02:59.598Z,999.21
2018-11-07T04:03:59.544Z,999.22
2018-11-07T04:04:59.633Z,999.22
2018-11-07T04:05:59.579Z,999.15
2018-11-07T04:06:59.597Z,999.10
2018-11-07T04:07:59.616Z,999.07
2018-11-07T04:08:59.631Z,999.08
2018-11-07T04:09:59.657Z,999.03
2018-11-07T04:10:59.660Z,998.99
2018-11-07T04:11:59.683Z,999.00
2018-11-07T04:12:59.695Z,999.04
2018-11-07T04:13:59.713Z,999.04
2018-11-07T04:14:59.728Z,999.03
2018-11-07T04:15:59.745Z,999.05
2018-11-07T04:16:59.782Z,998.96
2018-11-07T04:17:59.787Z,998.93
2018-11-07T04:18:59.798Z,998.95
2018-11-07T04:19:59.831Z,998.96
2018-11-07T04:20:59.840Z,999.01
2018-11-07T04:21:59.888Z,999.00
2018-11-07T04:22:59.858Z,999.05
2018-11-07T04:23:59.875Z,999.06
2018-11-07T04:24:59.924Z,999.01
2018-11-07T04:25:59.912Z,999.00
2018-11-07T04:26:59.956Z,998.93
2018-11-07T04:27:59.947Z,998.89
2018-11-07T04:28:59.974Z,998.95
2018-11-07T04:29:59.991Z,999.01
2018-11-07T04:30:59.998Z,999.05
2018-11-07T04:32:00.019Z,999.04
2018-11-07T04:34:00.034Z,999.00
2018-11-07T04:35:00.067Z,998.93
2018-11-07T04:36:00.081Z,998.90
2018-11-07T04:37:00.081Z,998.91
2018-11-07T04:38:00.107Z,998.91
2018-11-07T04:39:00.198Z,998.91
2018-11-07T04:41:00.319Z,998.93
2018-11-07T04:42:00.187Z,998.93
2018-11-07T04:43:00.228Z,998.96
2018-11-07T04:44:00.202Z,998.96
2018-11-07T04:45:00.230Z,998.96
2018-11-07T04:46:00.283Z,998.99
2018-11-07T04:47:00.254Z,999.00
2018-11-07T04:48:00.265Z,998.99
2018-11-07T04:49:00.306Z,998.97
2018-11-07T04:50:00.372Z,998.93
2018-11-07T04:51:00.331Z,998.89
2018-11-07T04:52:00.330Z,998.91
2018-11-07T04:53:00.386Z,998.89
2018-11-07T04:54:00.364Z,998.91
2018-11-07T04:55:00.380Z,998.98
2018-11-07T04:56:00.419Z,999.00
2018-11-07T04:57:00.419Z,999.02
2018-11-07T04:58:00.430Z,999.05
2018-11-07T04:59:00.446Z,999.06
2018-11-07T05:00:00.529Z,999.02
2018-11-07T05:01:00.565Z,999.03
2018-11-07T05:02:00.530Z,998.99
2018-11-07T05:03:00.512Z,999.06
2018-11-07T05:04:00.535Z,999.03
2018-11-07T05:05:00.563Z,999.05
2018-11-07T05:06:00.622Z,999.08
2018-11-07T05:07:00.579Z,999.09
2018-11-07T05:08:00.618Z,999.07
2018-11-07T05:09:00.606Z,999.05
2018-11-07T05:10:00.630Z,999.05
2018-11-07T05:11:00.658Z,999.06
2018-11-07T05:12:00.658Z,999.04
2018-11-07T05:13:00.686Z,999.07
2018-11-07T05:14:00.730Z,999.06
2018-11-07T05:15:00.718Z,999.05
2018-11-07T05:16:00.729Z,999.06
2018-11-07T05:17:00.746Z,999.02
2018-11-07T05:18:00.808Z,998.99
2018-11-07T05:19:00.802Z,998.99
2018-11-07T05:20:00.801Z,998.99
2018-11-07T05:21:00.805Z,999.01
2018-11-07T05:22:00.826Z,999.03
2018-11-07T05:23:00.847Z,999.08
2018-11-07T05:24:00.855Z,999.09
2018-11-07T05:25:00.869Z,999.11
2018-11-07T05:26:00.895Z,999.14
2018-11-07T05:27:00.902Z,999.16
2018-11-07T05:28:00.929Z,999.20
2018-11-07T05:30:00.954Z,999.25
2018-11-07T05:31:00.970Z,999.24
2018-11-07T05:32:01.056Z,999.18
2018-11-07T05:33:01.005Z,999.12
2018-11-07T05:34:01.013Z,999.15
2018-11-07T05:35:01.057Z,999.16
2018-11-07T05:36:01.047Z,999.18
2018-11-07T05:37:01.082Z,999.15
2018-11-07T05:38:01.084Z,999.23
2018-11-07T05:39:01.096Z,999.20
2018-11-07T05:40:01.109Z,999.19
2018-11-07T05:41:01.177Z,999.18
2018-11-07T05:42:01.146Z,999.17
2018-11-07T05:43:01.164Z,999.21
2018-11-07T05:44:01.180Z,999.20
2018-11-07T05:46:01.289Z,999.17
2018-11-07T05:47:01.224Z,999.13
2018-11-07T05:48:01.289Z,999.11
2018-11-07T05:49:01.338Z,999.12
2018-11-07T05:50:01.267Z,999.15
2018-11-07T05:51:01.290Z,999.17
2018-11-07T05:52:01.311Z,999.25
2018-11-07T05:53:01.325Z,999.19
2018-11-07T05:54:01.353Z,999.22
2018-11-07T05:55:01.360Z,999.25
2018-11-07T05:56:01.374Z,999.27
2018-11-07T05:57:01.398Z,999.31
2018-11-07T05:58:01.403Z,999.31
2018-11-07T05:59:01.428Z,999.30
2018-11-07T06:00:01.444Z,999.32
2018-11-07T06:01:01.458Z,999.31
2018-11-07T06:02:01.467Z,999.33
2018-11-07T06:03:01.486Z,999.32
2018-11-07T06:04:01.500Z,999.34
2018-11-07T06:05:01.518Z,999.34
2018-11-07T06:06:01.541Z,999.40
2018-11-07T06:07:01.549Z,999.37
2018-11-07T06:08:01.567Z,999.35
2018-11-07T06:09:01.586Z,999.33
2018-11-07T06:10:01.593Z,999.35
2018-11-07T06:11:01.627Z,999.34
2018-11-07T06:12:01.650Z,999.34
2018-11-07T06:13:01.667Z,999.33
2018-11-07T06:16:01.789Z,999.34
2018-11-07T06:18:01.738Z,999.39
2018-11-07T06:19:01.748Z,999.42
2018-11-07T06:20:01.761Z,999.47
2018-11-07T06:21:01.775Z,999.45
2018-11-07T06:22:01.789Z,999.50
2018-11-07T06:23:01.815Z,999.48
2018-11-07T06:24:01.825Z,999.47
2018-11-07T06:25:01.994Z,999.53
2018-11-07T06:26:01.864Z,999.47
2018-11-07T06:27:01.896Z,999.50
2018-11-07T06:28:01.890Z,999.50
2018-11-07T06:29:01.916Z,999.47
2018-11-07T06:30:01.954Z,999.45
2018-11-07T06:31:01.949Z,999.45
2018-11-07T06:32:01.972Z,999.44
2018-11-07T06:33:01.972Z,999.48
2018-11-07T06:34:02.002Z,999.50
2018-11-07T06:35:02.028Z,999.51
2018-11-07T06:36:02.043Z,999.54
2018-11-07T06:37:02.033Z,999.56
2018-11-07T06:38:02.055Z,999.56
2018-11-07T06:39:02.081Z,999.59
2018-11-07T06:40:02.090Z,999.58
2018-11-07T06:41:02.096Z,999.54
2018-11-07T06:42:02.130Z,999.56
2018-11-07T06:43:02.132Z,999.55
2018-11-07T06:44:04.144Z,999.55
2018-11-07T06:45:02.189Z,999.59
2018-11-07T06:46:02.181Z,999.63
2018-11-07T06:47:02.200Z,999.60
2018-11-07T06:48:02.219Z,999.62
2018-11-07T06:49:02.231Z,999.65
2018-11-07T06:50:02.251Z,999.64
2018-11-07T06:51:02.264Z,999.66
2018-11-07T06:52:02.278Z,999.67
2018-11-07T06:54:02.317Z,999.70
2018-11-07T06:55:02.394Z,999.72
2018-11-07T06:56:02.344Z,999.73
2018-11-07T06:57:02.386Z,999.74
2018-11-07T06:58:02.379Z,999.75
2018-11-07T06:59:02.402Z,999.74
2018-11-07T07:00:02.407Z,999.75
2018-11-07T07:01:02.434Z,999.74
2018-11-07T07:02:02.440Z,999.74
2018-11-07T07:03:02.480Z,999.73
2018-11-07T07:04:02.506Z,999.78
2018-11-07T07:06:02.503Z,999.77
2018-11-07T07:07:02.530Z,999.77
2018-11-07T07:08:02.578Z,999.79
2018-11-07T07:09:02.549Z,999.77
2018-11-07T07:10:02.565Z,999.78
2018-11-07T07:11:02.592Z,999.81
2018-11-07T07:12:02.618Z,999.77
2018-11-07T07:13:02.623Z,999.81
2018-11-07T07:14:02.661Z,999.82
2018-11-07T07:15:02.652Z,999.81
2018-11-07T07:16:02.668Z,999.83
2018-11-07T07:17:02.692Z,999.82
2018-11-07T07:18:02.756Z,999.78
2018-11-07T07:19:02.711Z,999.78
2018-11-07T07:20:02.727Z,999.75
2018-11-07T07:21:02.761Z,999.78
2018-11-07T07:22:02.773Z,999.75
2018-11-07T07:23:02.849Z,999.75
2018-11-07T07:24:02.825Z,999.76
2018-11-07T07:25:02.816Z,999.75
2018-11-07T07:26:02.824Z,999.77
2018-11-07T07:27:02.844Z,999.72
2018-11-07T07:28:02.854Z,999.75
2018-11-07T07:29:02.875Z,999.68
2018-11-07T07:30:02.972Z,999.72
2018-11-07T07:31:02.911Z,999.69
2018-11-07T07:32:02.930Z,999.73
2018-11-07T07:33:02.970Z,999.75
2018-11-07T07:34:02.958Z,999.76
2018-11-07T07:35:02.983Z,999.75
2018-11-07T07:36:02.983Z,999.73
2018-11-07T07:37:03.041Z,999.72
2018-11-07T07:38:03.018Z,999.72
2018-11-07T07:39:03.058Z,999.70
2018-11-07T07:40:03.061Z,999.74
2018-11-07T07:41:03.067Z,999.73
2018-11-07T07:42:03.091Z,999.75
2018-11-07T07:43:03.097Z,999.73
2018-11-07T07:44:03.113Z,999.70
2018-11-07T07:45:03.140Z,999.72
2018-11-07T07:46:03.143Z,999.72
2018-11-07T07:47:03.162Z,999.69
2018-11-07T07:48:03.216Z,999.68
2018-11-07T07:49:03.207Z,999.69
2018-11-07T07:50:03.241Z,999.72
2018-11-07T07:51:03.291Z,999.72
2018-11-07T07:52:03.244Z,999.73
2018-11-07T07:53:03.303Z,999.74
2018-11-07T07:54:03.290Z,999.75
2018-11-07T07:55:03.306Z,999.76
2018-11-07T07:56:03.332Z,999.73
2018-11-07T07:57:03.336Z,999.75
2018-11-07T07:58:03.341Z,999.78
2018-11-07T07:59:04.359Z,999.81
2018-11-07T08:00:03.388Z,999.82
2018-11-07T08:01:03.407Z,999.81
2018-11-07T08:02:03.409Z,999.83
2018-11-07T08:03:03.446Z,999.82
2018-11-07T08:04:03.445Z,999.81
2018-11-07T08:05:03.467Z,999.81
2018-11-07T08:06:03.487Z,999.80
2018-11-07T08:07:03.581Z,999.77
2018-11-07T08:08:03.588Z,999.80
2018-11-07T08:09:03.538Z,999.76
2018-11-07T08:10:03.576Z,999.77
2018-11-07T08:11:03.573Z,999.79
2018-11-07T08:12:03.584Z,999.77
2018-11-07T08:13:03.593Z,999.73
2018-11-07T08:14:03.735Z,999.78
2018-11-07T08:15:03.642Z,999.76
2018-11-07T08:16:03.650Z,999.75
2018-11-07T08:17:03.670Z,999.77
2018-11-07T08:19:03.721Z,999.72
2018-11-07T08:20:03.740Z,999.75
2018-11-07T08:21:03.778Z,999.80
2018-11-07T08:22:03.791Z,999.82
2018-11-07T08:23:03.788Z,999.81
2018-11-07T08:24:03.816Z,999.77
2018-11-07T08:25:03.817Z,999.77
2018-11-07T08:26:03.836Z,999.80
2018-11-07T08:27:03.853Z,999.80
2018-11-07T08:28:03.873Z,999.79
2018-11-07T08:29:03.959Z,999.83
2018-11-07T08:30:03.939Z,999.83
2018-11-07T08:31:04.047Z,999.83
2018-11-07T08:32:04.032Z,999.82
2018-11-07T08:33:03.966Z,999.73
2018-11-07T08:34:03.991Z,999.68
2018-11-07T08:35:04.008Z,999.62
2018-11-07T08:36:04.023Z,999.65
2018-11-07T08:37:04.038Z,999.66
2018-11-07T08:38:04.058Z,999.70
2018-11-07T08:39:04.087Z,999.76
2018-11-07T08:40:04.099Z,999.78
2018-11-07T08:41:04.122Z,999.86
2018-11-07T08:43:04.159Z,999.86
2018-11-07T08:44:04.174Z,999.82
2018-11-07T08:45:04.226Z,999.90
2018-11-07T08:46:04.208Z,999.82
2018-11-07T08:47:04.230Z,999.79
2018-11-07T08:48:04.289Z,999.87
2018-11-07T08:49:04.261Z,999.87
2018-11-07T08:50:04.282Z,999.90
2018-11-07T08:51:04.319Z,999.93
2018-11-07T08:52:04.342Z,999.93
2018-11-07T08:53:04.349Z,999.96
2018-11-07T08:54:04.353Z,999.94
2018-11-07T08:55:04.472Z,999.92
2018-11-07T08:56:04.413Z,999.87
2018-11-07T08:57:04.411Z,999.83
2018-11-07T08:58:04.443Z,999.81
2018-11-07T08:59:04.451Z,999.78
2018-11-07T09:00:04.477Z,999.84
2018-11-07T09:01:05.509Z,999.87
2018-11-07T09:02:04.538Z,999.84
2018-11-07T09:03:04.522Z,999.91
2018-11-07T09:04:04.550Z,999.97
2018-11-07T09:05:04.569Z,999.97
2018-11-07T09:06:04.588Z,999.99
2018-11-07T09:07:04.605Z,1000.04
2018-11-07T09:08:04.626Z,999.96
2018-11-07T09:09:04.652Z,999.96
2018-11-07T09:10:04.669Z,999.98
2018-11-07T09:11:04.679Z,999.94
2018-11-07T09:12:04.752Z,999.90
2018-11-07T09:13:04.722Z,999.90
2018-11-07T09:14:04.759Z,999.89
2018-11-07T09:15:04.761Z,999.94
2018-11-07T09:16:04.777Z,999.95
2018-11-07T09:17:04.814Z,999.91
2018-11-07T09:18:04.818Z,999.92
2018-11-07T09:19:04.841Z,999.88
2018-11-07T09:20:04.939Z,999.94
2018-11-07T09:21:04.882Z,999.91
2018-11-07T09:22:04.921Z,999.91
2018-11-07T09:23:04.926Z,999.89
2018-11-07T09:24:04.981Z,999.90
2018-11-07T09:25:04.955Z,999.94
2018-11-07T09:26:04.983Z,999.95
2018-11-07T09:27:05.017Z,999.93
2018-11-07T09:28:05.020Z,999.98
2018-11-07T09:29:05.053Z,999.98
2018-11-07T09:30:05.069Z,999.96
2018-11-07T09:31:05.075Z,999.91
2018-11-07T09:32:05.101Z,999.95
2018-11-07T09:33:05.111Z,999.92
2018-11-07T09:34:05.123Z,999.92
2018-11-07T09:35:05.152Z,999.91
2018-11-07T09:36:05.168Z,999.90
2018-11-07T09:37:05.221Z,999.87
2018-11-07T09:38:05.200Z,999.86
2018-11-07T09:39:05.256Z,999.85
2018-11-07T09:40:05.246Z,999.86
2018-11-07T09:41:05.275Z,999.84
2018-11-07T09:42:07.279Z,999.82
2018-11-07T09:43:05.344Z,999.80
2018-11-07T09:44:05.329Z,999.78
2018-11-07T09:45:05.338Z,999.76
2018-11-07T09:46:05.373Z,999.77
2018-11-07T09:48:05.423Z,999.81
2018-11-07T09:49:05.431Z,999.86
2018-11-07T09:50:05.434Z,999.90
2018-11-07T09:51:05.460Z,999.92
2018-11-07T09:52:05.581Z,999.89
2018-11-07T09:53:05.507Z,999.90
2018-11-07T09:54:05.600Z,999.89
2018-11-07T09:55:05.525Z,999.86
2018-11-07T09:56:05.555Z,999.86
2018-11-07T09:57:05.605Z,999.83
2018-11-07T09:58:05.629Z,999.81
2018-11-07T09:59:05.619Z,999.82
2018-11-07T10:00:05.614Z,999.85
2018-11-07T10:01:05.653Z,999.90
2018-11-07T10:02:05.660Z,999.83
2018-11-07T10:03:05.672Z,999.86
2018-11-07T10:04:05.689Z,999.85
2018-11-07T10:05:05.713Z,999.83
2018-11-07T10:06:05.732Z,999.84
2018-11-07T10:07:05.752Z,999.85
2018-11-07T10:08:05.779Z,999.85
2018-11-07T10:09:05.792Z,999.84
2018-11-07T10:10:05.861Z,999.81
2018-11-07T10:11:05.832Z,999.83
2018-11-07T10:12:05.848Z,999.85
2018-11-07T10:13:05.873Z,999.84
2018-11-07T10:14:05.888Z,999.81
2018-11-07T10:15:05.920Z,999.84
2018-11-07T10:16:05.920Z,999.85
2018-11-07T10:17:05.945Z,999.84
2018-11-07T10:18:05.954Z,999.85
2018-11-07T10:19:05.975Z,999.80
2018-11-07T10:20:06.089Z,999.83
2018-11-07T10:21:06.014Z,999.77
2018-11-07T10:22:06.041Z,999.75
2018-11-07T10:23:06.076Z,999.77
2018-11-07T10:24:06.074Z,999.75
2018-11-07T10:25:06.119Z,999.76
2018-11-07T10:26:06.107Z,999.76
2018-11-07T10:27:06.288Z,999.78
2018-11-07T10:28:06.471Z,999.81
2018-11-07T10:30:06.518Z,999.72
2018-11-07T10:31:06.274Z,999.74
2018-11-07T10:33:06.337Z,999.72
2018-11-07T10:34:06.262Z,999.72
2018-11-07T10:35:06.277Z,999.70
2018-11-07T10:36:06.296Z,999.73
2018-11-07T10:37:06.320Z,999.69
2018-11-07T10:38:06.467Z,999.73
2018-11-07T10:39:06.350Z,999.75
2018-11-07T10:40:06.383Z,999.69
2018-11-07T10:41:06.388Z,999.71
2018-11-07T10:42:06.427Z,999.67
2018-11-07T10:43:06.450Z,999.73
2018-11-07T10:44:06.464Z,999.72
2018-11-07T10:45:06.462Z,999.70
2018-11-07T10:47:06.495Z,999.66
2018-11-07T10:48:06.536Z,999.66
2018-11-07T10:50:06.566Z,999.60
2018-11-07T10:51:06.570Z,999.63
2018-11-07T10:52:06.607Z,999.63
2018-11-07T10:53:06.626Z,999.59
2018-11-07T10:54:06.638Z,999.66
2018-11-07T10:55:06.673Z,999.61
2018-11-07T10:56:06.687Z,999.58
2018-11-07T10:57:06.724Z,999.63
2018-11-07T10:58:06.708Z,999.55
2018-11-07T10:59:06.738Z,999.61
2018-11-07T11:00:06.760Z,999.56
2018-11-07T11:01:06.783Z,999.53
2018-11-07T11:02:06.793Z,999.55
2018-11-07T11:03:06.838Z,999.50
2018-11-07T11:04:06.845Z,999.49
2018-11-07T11:05:06.862Z,999.52
2018-11-07T11:06:06.885Z,999.54
2018-11-07T11:07:06.897Z,999.53
2018-11-07T11:08:06.913Z,999.62
2018-11-07T11:09:06.938Z,999.69
2018-11-07T11:10:06.957Z,999.52
2018-11-07T11:11:07.013Z,999.55
2018-11-07T11:12:07.062Z,999.56
2018-11-07T11:13:07.011Z,999.55
2018-11-07T11:14:07.034Z,999.54
2018-11-07T11:15:07.054Z,999.51
2018-11-07T11:16:07.083Z,999.61
2018-11-07T11:17:07.172Z,999.55
2018-11-07T11:18:07.121Z,999.56
2018-11-07T11:19:07.170Z,999.56
2018-11-07T11:20:07.180Z,999.50
2018-11-07T11:21:07.192Z,999.47
2018-11-07T11:22:07.205Z,999.47
2018-11-07T11:23:07.252Z,999.47
2018-11-07T11:24:07.247Z,999.53
2018-11-07T11:25:07.266Z,999.50
2018-11-07T11:26:07.315Z,999.48
2018-11-07T11:27:07.362Z,999.50
2018-11-07T11:28:07.344Z,999.55
2018-11-07T11:29:07.352Z,999.52
2018-11-07T11:30:07.381Z,999.58
2018-11-07T11:31:07.400Z,999.55
2018-11-07T11:32:07.404Z,999.59
2018-11-07T11:33:07.430Z,999.58
2018-11-07T11:34:07.552Z,999.56
2018-11-07T11:35:07.651Z,999.60
2018-11-07T11:36:07.584Z,999.57
2018-11-07T11:37:07.517Z,999.58
2018-11-07T11:38:07.520Z,999.56
2018-11-07T11:39:07.557Z,999.58
2018-11-07T11:40:07.558Z,999.54
2018-11-07T11:41:07.657Z,999.56
2018-11-07T11:43:07.635Z,999.51
2018-11-07T11:44:07.683Z,999.49
2018-11-07T11:45:07.668Z,999.52
2018-11-07T11:46:07.690Z,999.45
2018-11-07T11:48:07.731Z,999.46
2018-11-07T11:49:07.806Z,999.47
2018-11-07T11:50:07.781Z,999.48
2018-11-07T11:51:07.816Z,999.46
2018-11-07T11:52:07.815Z,999.48
2018-11-07T11:53:07.859Z,999.46
2018-11-07T11:54:07.854Z,999.48
2018-11-07T11:55:07.872Z,999.42
2018-11-07T11:56:07.891Z,999.45
2018-11-07T11:57:07.922Z,999.46
2018-11-07T11:58:07.954Z,999.43
2018-11-07T11:59:08.108Z,999.44
2018-11-07T12:00:08.508Z,999.38
2018-11-07T12:01:11.018Z,999.39
2018-11-07T12:02:08.059Z,999.37
2018-11-07T12:03:08.056Z,999.42
2018-11-07T12:04:08.090Z,999.44
2018-11-07T12:05:08.096Z,999.45
2018-11-07T12:06:08.115Z,999.49
2018-11-07T12:07:08.132Z,999.51
2018-11-07T12:08:08.172Z,999.46
2018-11-07T12:09:08.172Z,999.44
2018-11-07T12:10:08.190Z,999.46
2018-11-07T12:11:08.333Z,999.42
2018-11-07T12:12:08.294Z,999.40
2018-11-07T12:13:08.262Z,999.37
2018-11-07T12:14:08.270Z,999.36
2018-11-07T12:15:08.387Z,999.37
2018-11-07T12:16:08.331Z,999.35
2018-11-07T12:17:08.345Z,999.36
2018-11-07T12:18:08.365Z,999.39
2018-11-07T12:19:08.388Z,999.42
2018-11-07T12:20:08.412Z,999.39
2018-11-07T12:21:08.536Z,999.39
2018-11-07T12:22:08.448Z,999.39
2018-11-07T12:23:08.496Z,999.42
2018-11-07T12:24:08.495Z,999.45
2018-11-07T12:25:08.520Z,999.45
2018-11-07T12:26:08.573Z,999.43
2018-11-07T12:27:08.549Z,999.42
2018-11-07T12:28:08.605Z,999.43
2018-11-07T12:29:08.604Z,999.45
2018-11-07T12:30:08.626Z,999.46
2018-11-07T12:31:08.643Z,999.50
2018-11-07T12:32:08.668Z,999.47
2018-11-07T12:33:08.684Z,999.47
2018-11-07T12:35:08.751Z,999.46
2018-11-07T12:36:08.823Z,999.41
2018-11-07T12:37:08.791Z,999.45
2018-11-07T12:38:08.797Z,999.45
2018-11-07T12:39:08.914Z,999.40
2018-11-07T12:40:08.839Z,999.42
2018-11-07T12:41:08.858Z,999.39
2018-11-07T12:42:08.871Z,999.44
2018-11-07T12:43:08.912Z,999.41
2018-11-07T12:44:08.930Z,999.42
2018-11-07T12:45:08.932Z,999.40
2018-11-07T12:46:08.960Z,999.38
2018-11-07T12:47:08.991Z,999.40
2018-11-07T12:48:09.014Z,999.39
2018-11-07T12:49:09.022Z,999.38